createdAt,value
2018-11-02T13:33:41.585Z,43.444824
2018-11-02T13:33:47.593Z,43.54248
2018-11-02T13:33:53.586Z,44.061279
2018-11-02T13:33:59.543Z,44.158936
2018-11-02T13:34:05.526Z,44.360352
2018-11-02T13:34:11.536Z,43.963623
2018-11-02T13:34:17.517Z,44.659424
2018-11-02T13:34:23.449Z,44.561768
2018-11-02T13:34:29.479Z,48.834229
2018-11-02T13:34:35.447Z,51.220703
2018-11-02T13:34:41.406Z,46.844482
2018-11-02T13:34:47.407Z,45.257568
2018-11-02T13:34:53.404Z,44.659424
2018-11-02T13:34:59.348Z,44.561768
2018-11-02T13:35:05.288Z,44.360352
2018-11-02T13:35:11.286Z,43.762207
2018-11-02T13:35:17.263Z,44.378662
2018-11-02T13:35:23.274Z,44.781494
2018-11-02T13:35:29.315Z,44.281006
2018-11-02T13:35:35.327Z,43.682861
2018-11-02T13:35:41.255Z,44.18335
2018-11-02T13:35:47.186Z,43.804932
2018-11-02T13:35:53.226Z,44.104004
2018-11-02T13:35:59.184Z,44.604492
2018-11-02T13:36:05.171Z,44.799805
2018-11-02T13:36:11.198Z,44.403076
2018-11-02T13:36:17.247Z,44.122314
2018-11-02T13:36:23.423Z,44.32373
2018-11-02T13:36:29.450Z,44.122314
2018-11-02T13:36:35.383Z,44.525146
2018-11-02T13:36:41.264Z,44.720459
2018-11-02T13:36:47.474Z,44.32373
2018-11-02T13:36:53.125Z,44.348145
2018-11-02T13:36:59.047Z,43.945312
2018-11-02T13:37:05.156Z,44.647217
2018-11-02T13:37:11.167Z,44.543457
2018-11-02T13:37:17.093Z,44.567871
2018-11-02T13:37:23.011Z,44.866943
2018-11-02T13:37:28.980Z,44.866943
2018-11-02T13:37:34.977Z,44.763184
2018-11-02T13:37:40.909Z,44.464111
2018-11-02T13:37:46.804Z,44.366455
2018-11-02T13:37:52.787Z,44.787598
2018-11-02T13:37:58.773Z,45.288086
2018-11-02T13:38:04.724Z,45.08667
2018-11-02T13:38:10.655Z,45.385742
2018-11-02T13:38:16.576Z,45.782471
2018-11-02T13:38:22.577Z,46.081543
2018-11-02T13:38:28.486Z,45.983887
2018-11-02T13:38:34.496Z,45.782471
2018-11-02T13:38:40.485Z,45.709229
2018-11-02T13:38:46.486Z,45.806885
2018-11-02T13:38:52.496Z,45.806885
2018-11-02T13:38:58.445Z,45.507812
2018-11-02T13:39:04.427Z,45.605469
2018-11-02T13:39:10.409Z,45.605469
2018-11-02T13:39:16.366Z,45.709229
2018-11-02T13:39:22.354Z,45.709229
2018-11-02T13:39:28.379Z,45.404053
2018-11-02T13:39:34.366Z,45.330811
2018-11-02T13:39:40.383Z,45.428467
2018-11-02T13:39:46.366Z,44.830322
2018-11-02T13:39:52.336Z,44.53125
2018-11-02T13:39:59.257Z,44.927979
2018-11-02T13:40:05.276Z,45.330811
2018-11-02T13:40:11.212Z,45.825195
2018-11-02T13:40:17.157Z,45.428467
2018-11-02T13:40:23.187Z,45.031738
2018-11-02T13:40:29.126Z,45.349121
2018-11-02T13:40:35.110Z,44.952393
2018-11-02T13:40:41.077Z,45.147705
2018-11-02T13:40:47.018Z,45.751953
2018-11-02T13:40:52.947Z,45.648193
2018-11-02T13:40:58.935Z,45.947266
2018-11-02T13:41:04.915Z,46.447754
2018-11-02T13:41:10.844Z,46.551514
2018-11-02T13:41:16.795Z,46.850586
2018-11-02T13:41:22.834Z,46.948242
2018-11-02T13:41:28.797Z,46.948242
2018-11-02T13:41:34.737Z,46.948242
2018-11-02T13:41:40.748Z,47.351074
2018-11-02T13:41:46.725Z,47.247314
2018-11-02T13:41:52.703Z,47.247314
2018-11-02T13:41:58.645Z,47.44873
2018-11-02T13:42:04.617Z,47.44873
2018-11-02T13:42:10.602Z,47.546387
2018-11-02T13:42:16.609Z,47.949219
2018-11-02T13:42:22.586Z,49.145508
2018-11-02T13:42:28.583Z,48.748779
2018-11-02T13:42:34.596Z,48.846436
2018-11-02T13:42:40.597Z,48.846436
2018-11-02T13:42:46.624Z,48.944092
2018-11-02T13:42:52.637Z,48.846436
2018-11-02T13:42:58.815Z,49.145508
2018-11-02T13:43:04.845Z,49.249268
2018-11-02T13:43:10.833Z,49.645996
2018-11-02T13:43:17.025Z,49.44458
2018-11-02T13:43:23.724Z,49.145508
2018-11-02T13:43:29.721Z,48.944092
2018-11-02T13:43:35.768Z,49.249268
2018-11-02T13:43:41.787Z,49.346924
2018-11-02T13:43:47.712Z,49.523926
2018-11-02T13:43:53.625Z,50.024414
2018-11-02T13:43:59.624Z,50.024414
2018-11-02T13:44:05.633Z,49.621582
2018-11-02T13:44:11.604Z,49.822998
2018-11-02T13:44:17.565Z,49.920654
2018-11-02T13:44:23.535Z,51.019287
2018-11-02T13:44:29.467Z,50.817871
2018-11-02T13:44:35.431Z,51.019287
2018-11-02T13:44:41.415Z,51.318359
2018-11-02T13:44:48.373Z,51.318359
2018-11-02T13:44:54.344Z,50.622559
2018-11-02T13:45:00.314Z,50.323486
2018-11-02T13:45:06.232Z,49.32251
2018-11-02T13:45:12.203Z,48.822021
2018-11-02T13:45:18.126Z,48.522949
2018-11-02T13:45:24.087Z,48.223877
2018-11-02T13:45:30.059Z,48.223877
2018-11-02T13:45:36.938Z,48.022461
2018-11-02T13:45:42.899Z,48.022461
2018-11-02T13:45:48.889Z,48.126221
2018-11-02T13:45:54.813Z,48.223877
2018-11-02T13:46:00.767Z,48.223877
2018-11-02T13:46:06.745Z,48.425293
2018-11-02T13:46:12.744Z,48.126221
2018-11-02T13:46:18.750Z,47.924805
2018-11-02T13:46:24.686Z,48.126221
2018-11-02T13:46:31.619Z,48.321533
2018-11-02T13:46:37.654Z,48.022461
2018-11-02T13:46:44.605Z,48.126221
2018-11-02T13:46:50.629Z,48.248291
2018-11-02T13:46:57.596Z,48.248291
2018-11-02T13:47:03.526Z,48.144531
2018-11-02T13:47:09.487Z,48.046875
2018-11-02T13:47:15.479Z,48.248291
2018-11-02T13:47:21.417Z,48.248291
2018-11-02T13:47:27.347Z,48.248291
2018-11-02T13:47:33.192Z,48.144531
2018-11-02T13:47:39.097Z,48.449707
2018-11-02T13:47:45.014Z,47.845459
2018-11-02T13:47:50.927Z,48.046875
2018-11-02T13:47:56.822Z,48.223877
2018-11-02T13:48:02.755Z,48.126221
2018-11-02T13:48:08.733Z,48.925781
2018-11-02T13:48:14.679Z,49.32251
2018-11-02T13:48:20.666Z,48.64502
2018-11-02T13:48:26.706Z,48.248291
2018-11-02T13:48:32.632Z,48.248291
2018-11-02T13:48:38.595Z,48.144531
2018-11-02T13:48:44.584Z,47.949219
2018-11-02T13:48:50.570Z,47.045898
2018-11-02T13:48:56.517Z,46.850586
2018-11-02T13:49:02.442Z,47.247314
2018-11-02T13:49:08.340Z,47.247314
2018-11-02T13:49:14.277Z,47.44873
2018-11-02T13:49:20.253Z,47.650146
2018-11-02T13:49:26.266Z,47.845459
2018-11-02T13:49:32.266Z,47.546387
2018-11-02T13:49:38.246Z,47.650146
2018-11-02T13:49:44.254Z,47.351074
2018-11-02T13:49:51.165Z,47.149658
2018-11-02T13:49:57.079Z,47.473145
2018-11-02T13:50:03.058Z,47.473145
2018-11-02T13:50:09.112Z,47.369385
2018-11-02T13:50:15.116Z,47.473145
2018-11-02T13:50:21.117Z,47.570801
2018-11-02T13:50:27.151Z,47.570801
2018-11-02T13:50:33.110Z,47.668457
2018-11-02T13:50:38.997Z,47.473145
2018-11-02T13:50:45.003Z,47.271729
2018-11-02T13:50:51.011Z,47.473145
2018-11-02T13:50:57.046Z,47.570801
2018-11-02T13:51:03.077Z,47.668457
2018-11-02T13:51:09.096Z,47.473145
2018-11-02T13:51:15.103Z,47.570801
2018-11-02T13:51:22.287Z,47.369385
2018-11-02T13:51:28.286Z,47.271729
2018-11-02T13:51:34.296Z,46.77124
2018-11-02T13:51:40.325Z,46.868896
2018-11-02T13:51:46.503Z,46.972656
2018-11-02T13:51:52.547Z,46.990967
2018-11-02T13:51:58.585Z,46.893311
2018-11-02T13:52:04.613Z,46.893311
2018-11-02T13:52:10.667Z,47.094727
2018-11-02T13:52:16.726Z,47.192383
2018-11-02T13:52:22.693Z,47.296143
2018-11-02T13:52:28.737Z,47.393799
2018-11-02T13:52:34.742Z,47.491455
2018-11-02T13:52:40.848Z,47.790527
2018-11-02T13:52:47.887Z,48.095703
2018-11-02T13:52:53.915Z,48.291016
2018-11-02T13:52:59.926Z,48.394775
2018-11-02T13:53:05.994Z,49.194336
2018-11-02T13:53:12.036Z,49.493408
2018-11-02T13:53:18.096Z,49.291992
2018-11-02T13:53:24.117Z,49.090576
2018-11-02T13:53:30.118Z,48.99292
2018-11-02T13:53:36.263Z,48.895264
2018-11-02T13:53:42.289Z,48.895264
2018-11-02T13:53:48.286Z,48.87085
2018-11-02T13:53:54.283Z,48.968506
2018-11-02T13:54:00.276Z,49.072266
2018-11-02T13:54:06.326Z,49.072266
2018-11-02T13:54:12.347Z,49.072266
2018-11-02T13:54:18.348Z,49.072266
2018-11-02T13:54:24.367Z,49.072266
2018-11-02T13:54:30.366Z,49.169922
2018-11-02T13:54:36.369Z,49.169922
2018-11-02T13:54:42.374Z,49.072266
2018-11-02T13:54:48.323Z,48.968506
2018-11-02T13:54:54.356Z,49.072266
2018-11-02T13:55:00.327Z,49.169922
2018-11-02T13:55:06.304Z,49.169922
2018-11-02T13:55:12.319Z,49.072266
2018-11-02T13:55:18.295Z,48.87085
2018-11-02T13:55:24.308Z,48.669434
2018-11-02T13:55:30.303Z,48.370361
2018-11-02T13:55:36.267Z,48.272705
2018-11-02T13:55:42.244Z,48.272705
2018-11-02T13:55:48.265Z,48.168945
2018-11-02T13:55:54.247Z,47.869873
2018-11-02T13:56:00.236Z,47.772217
2018-11-02T13:56:06.216Z,47.772217
2018-11-02T13:56:12.256Z,47.869873
2018-11-02T13:56:18.232Z,47.869873
2018-11-02T13:56:24.201Z,47.772217
2018-11-02T13:56:30.166Z,47.869873
2018-11-02T13:56:36.147Z,47.869873
2018-11-02T13:56:42.174Z,48.071289
2018-11-02T13:56:48.163Z,48.071289
2018-11-02T13:56:54.184Z,48.071289
2018-11-02T13:57:00.171Z,48.071289
2018-11-02T13:57:06.134Z,47.973633
2018-11-02T13:57:12.119Z,48.071289
2018-11-02T13:57:19.138Z,48.168945
2018-11-02T13:57:26.106Z,48.248291
2018-11-02T13:57:32.076Z,48.248291
2018-11-02T13:57:38.096Z,48.345947
2018-11-02T13:57:44.124Z,48.345947
2018-11-02T13:57:50.136Z,48.345947
2018-11-02T13:57:56.126Z,48.248291
2018-11-02T13:58:02.138Z,48.046875
2018-11-02T13:58:08.126Z,48.046875
2018-11-02T13:58:14.136Z,47.845459
2018-11-02T13:58:20.127Z,47.845459
2018-11-02T13:58:26.146Z,47.845459
2018-11-02T13:58:32.157Z,47.845459
2018-11-02T13:58:38.158Z,47.949219
2018-11-02T13:58:44.171Z,47.949219
2018-11-02T13:58:50.247Z,47.949219
2018-11-02T13:58:56.247Z,47.949219
2018-11-02T13:59:02.135Z,48.046875
2018-11-02T13:59:08.109Z,48.046875
2018-11-02T13:59:14.182Z,47.845459
2018-11-02T13:59:20.125Z,47.845459
2018-11-02T13:59:26.093Z,47.845459
2018-11-02T13:59:32.076Z,47.949219
2018-11-02T13:59:38.120Z,47.949219
2018-11-02T13:59:44.000Z,48.046875
2018-11-02T13:59:50.016Z,48.046875
2018-11-02T13:59:55.978Z,48.046875
2018-11-02T14:00:02.006Z,48.046875
2018-11-02T14:00:08.000Z,48.022461
2018-11-02T14:00:13.950Z,47.924805
2018-11-02T14:00:19.857Z,47.827148
2018-11-02T14:00:25.946Z,47.827148
2018-11-02T14:00:32.934Z,47.827148
2018-11-02T14:00:38.887Z,47.827148
2018-11-02T14:00:44.882Z,47.723389
2018-11-02T14:00:50.866Z,47.827148
2018-11-02T14:00:56.885Z,47.723389
2018-11-02T14:01:02.954Z,47.625732
2018-11-02T14:01:08.969Z,47.32666
2018-11-02T14:01:14.892Z,47.2229
2018-11-02T14:01:21.013Z,47.32666
2018-11-02T14:01:26.925Z,47.424316
2018-11-02T14:01:32.825Z,47.32666
2018-11-02T14:01:38.793Z,47.2229
2018-11-02T14:01:44.710Z,47.351074
2018-11-02T14:01:50.676Z,47.351074
2018-11-02T14:01:56.635Z,47.44873
2018-11-02T14:02:02.596Z,47.44873
2018-11-02T14:02:08.527Z,47.351074
2018-11-02T14:02:14.506Z,47.351074
2018-11-02T14:02:20.425Z,47.44873
2018-11-02T14:02:26.385Z,47.546387
2018-11-02T14:02:33.343Z,47.625732
2018-11-02T14:02:40.318Z,47.827148
2018-11-02T14:02:46.286Z,47.827148
2018-11-02T14:02:52.256Z,47.723389
2018-11-02T14:02:58.267Z,47.723389
2018-11-02T14:03:04.246Z,47.723389
2018-11-02T14:03:10.227Z,47.625732
2018-11-02T14:03:16.194Z,47.723389
2018-11-02T14:03:22.187Z,47.723389
2018-11-02T14:03:28.160Z,47.625732
2018-11-02T14:03:34.134Z,47.625732
2018-11-02T14:03:40.097Z,47.723389
2018-11-02T14:03:46.006Z,47.625732
2018-11-02T14:03:51.937Z,47.528076
2018-11-02T14:03:57.876Z,47.528076
2018-11-02T14:04:03.817Z,47.528076
2018-11-02T14:04:10.824Z,47.625732
2018-11-02T14:04:16.808Z,47.625732
2018-11-02T14:04:22.768Z,47.32666
2018-11-02T14:04:28.716Z,47.32666
2018-11-02T14:04:34.717Z,47.32666
2018-11-02T14:04:40.695Z,47.2229
2018-11-02T14:04:46.692Z,47.32666
2018-11-02T14:04:52.655Z,47.424316
2018-11-02T14:04:58.650Z,47.424316
2018-11-02T14:05:04.714Z,47.528076
2018-11-02T14:05:11.673Z,47.625732
2018-11-02T14:05:17.614Z,47.528076
2018-11-02T14:05:23.658Z,47.528076
2018-11-02T14:05:29.635Z,47.528076
2018-11-02T14:05:35.586Z,47.528076
2018-11-02T14:05:41.606Z,47.424316
2018-11-02T14:05:47.684Z,47.32666
2018-11-02T14:05:53.646Z,47.2229
2018-11-02T14:05:59.656Z,47.027588
2018-11-02T14:06:05.665Z,47.125244
2018-11-02T14:06:11.647Z,47.2229
2018-11-02T14:06:17.585Z,47.2229
2018-11-02T14:06:23.596Z,47.2229
2018-11-02T14:06:29.629Z,47.2229
2018-11-02T14:06:35.580Z,47.32666
2018-11-02T14:06:41.597Z,47.125244
2018-11-02T14:06:47.626Z,47.2229
2018-11-02T14:06:53.646Z,47.2229
2018-11-02T14:06:59.615Z,47.2229
2018-11-02T14:07:05.596Z,47.32666
2018-11-02T14:07:11.575Z,47.2229
2018-11-02T14:07:18.557Z,47.247314
2018-11-02T14:07:24.556Z,47.44873
2018-11-02T14:07:30.527Z,47.44873
2018-11-02T14:07:36.585Z,47.351074
2018-11-02T14:07:42.547Z,47.247314
2018-11-02T14:07:48.546Z,47.546387
2018-11-02T14:07:55.495Z,47.747803
2018-11-02T14:08:01.434Z,47.747803
2018-11-02T14:08:07.446Z,47.546387
2018-11-02T14:08:13.397Z,47.650146
2018-11-02T14:08:19.398Z,47.747803
2018-11-02T14:08:25.365Z,47.570801
2018-11-02T14:08:32.384Z,47.070312
2018-11-02T14:08:39.366Z,47.174072
2018-11-02T14:08:45.296Z,47.369385
2018-11-02T14:08:51.271Z,47.473145
2018-11-02T14:08:57.244Z,47.473145
2018-11-02T14:09:04.226Z,47.570801
2018-11-02T14:09:10.236Z,47.570801
2018-11-02T14:09:17.527Z,47.473145
2018-11-02T14:09:23.265Z,47.473145
2018-11-02T14:09:29.142Z,47.570801
2018-11-02T14:09:35.118Z,47.369385
2018-11-02T14:09:41.077Z,47.094727
2018-11-02T14:09:47.076Z,47.094727
2018-11-02T14:09:53.056Z,47.296143
2018-11-02T14:09:59.027Z,46.990967
2018-11-02T14:10:04.997Z,47.094727
2018-11-02T14:10:10.984Z,47.491455
2018-11-02T14:10:16.967Z,47.094727
2018-11-02T14:10:22.946Z,47.094727
2018-11-02T14:10:28.952Z,46.893311
2018-11-02T14:10:34.916Z,46.795654
2018-11-02T14:10:40.854Z,47.094727
2018-11-02T14:10:46.792Z,47.296143
2018-11-02T14:10:52.816Z,47.192383
2018-11-02T14:10:58.807Z,47.296143
2018-11-02T14:11:04.837Z,47.393799
2018-11-02T14:11:10.857Z,47.613525
2018-11-02T14:11:16.866Z,47.515869
2018-11-02T14:11:22.871Z,47.717285
2018-11-02T14:11:28.839Z,47.717285
2018-11-02T14:11:34.843Z,48.016357
2018-11-02T14:11:40.962Z,47.717285
2018-11-02T14:11:46.862Z,47.613525
2018-11-02T14:11:52.726Z,47.613525
2018-11-02T14:11:58.696Z,47.814941
2018-11-02T14:12:04.697Z,47.918701
2018-11-02T14:12:10.709Z,47.814941
2018-11-02T14:12:16.707Z,47.814941
2018-11-02T14:12:22.727Z,47.918701
2018-11-02T14:12:28.751Z,47.717285
2018-11-02T14:12:34.748Z,47.717285
2018-11-02T14:12:40.745Z,47.717285
2018-11-02T14:12:46.724Z,47.515869
2018-11-02T14:12:52.687Z,47.717285
2018-11-02T14:12:58.734Z,47.814941
2018-11-02T14:13:04.697Z,48.016357
2018-11-02T14:13:10.636Z,48.016357
2018-11-02T14:13:16.569Z,47.814941
2018-11-02T14:13:22.495Z,47.692871
2018-11-02T14:13:28.440Z,47.790527
2018-11-02T14:13:34.425Z,47.790527
2018-11-02T14:13:40.468Z,47.790527
2018-11-02T14:13:46.463Z,47.991943
2018-11-02T14:13:52.456Z,48.291016
2018-11-02T14:13:58.607Z,48.291016
2018-11-02T14:14:04.595Z,48.291016
2018-11-02T14:14:10.617Z,48.193359
2018-11-02T14:14:16.558Z,48.095703
2018-11-02T14:14:22.516Z,48.095703
2018-11-02T14:14:28.478Z,48.095703
2018-11-02T14:14:34.424Z,48.095703
2018-11-02T14:14:40.392Z,48.193359
2018-11-02T14:14:46.395Z,48.291016
2018-11-02T14:14:52.417Z,48.291016
2018-11-02T14:14:58.426Z,48.193359
2018-11-02T14:15:04.416Z,48.095703
2018-11-02T14:15:10.413Z,48.095703
2018-11-02T14:15:16.430Z,48.095703
2018-11-02T14:15:22.453Z,48.095703
2018-11-02T14:15:28.426Z,48.095703
2018-11-02T14:15:34.437Z,48.095703
2018-11-02T14:15:40.455Z,48.193359
2018-11-02T14:15:46.374Z,48.291016
2018-11-02T14:15:52.367Z,48.394775
2018-11-02T14:15:58.345Z,48.492432
2018-11-02T14:16:04.351Z,48.596191
2018-11-02T14:16:10.376Z,48.87085
2018-11-02T14:16:16.386Z,48.669434
2018-11-02T14:16:22.366Z,48.773193
2018-11-02T14:16:28.390Z,48.87085
2018-11-02T14:16:34.364Z,48.669434
2018-11-02T14:16:40.354Z,48.370361
2018-11-02T14:16:46.387Z,47.973633
2018-11-02T14:16:53.364Z,48.071289
2018-11-02T14:16:59.346Z,47.747803
2018-11-02T14:17:05.365Z,47.650146
2018-11-02T14:17:11.341Z,47.546387
2018-11-02T14:17:17.366Z,47.247314
2018-11-02T14:17:23.368Z,46.850586
2018-11-02T14:17:29.310Z,46.551514
2018-11-02T14:17:35.286Z,46.447754
2018-11-02T14:17:41.213Z,46.64917
2018-11-02T14:17:47.160Z,46.746826
2018-11-02T14:17:53.152Z,46.551514
2018-11-02T14:17:59.174Z,46.447754
2018-11-02T14:18:05.166Z,46.447754
2018-11-02T14:18:12.216Z,46.325684
2018-11-02T14:18:18.205Z,46.5271
2018-11-02T14:18:24.225Z,46.624756
2018-11-02T14:18:30.287Z,46.624756
2018-11-02T14:18:36.325Z,46.5271
2018-11-02T14:18:42.116Z,46.325684
2018-11-02T14:18:48.103Z,46.228027
2018-11-02T14:18:55.097Z,46.429443
2018-11-02T14:19:01.077Z,46.429443
2018-11-02T14:19:07.027Z,46.228027
2018-11-02T14:19:12.971Z,46.130371
2018-11-02T14:19:18.845Z,45.928955
2018-11-02T14:19:24.867Z,45.727539
2018-11-02T14:19:30.855Z,45.629883
2018-11-02T14:19:37.876Z,45.629883
2018-11-02T14:19:43.843Z,45.727539
2018-11-02T14:19:49.856Z,45.727539
2018-11-02T14:19:55.866Z,45.629883
2018-11-02T14:20:01.816Z,45.526123
2018-11-02T14:20:07.806Z,45.526123
2018-11-02T14:20:13.825Z,45.629883
2018-11-02T14:20:19.838Z,45.727539
2018-11-02T14:20:25.815Z,45.727539
2018-11-02T14:20:31.825Z,45.629883
2018-11-02T14:20:39.789Z,45.928955
2018-11-02T14:20:45.814Z,46.325684
2018-11-02T14:20:51.786Z,45.928955
2018-11-02T14:20:57.814Z,45.526123
2018-11-02T14:21:03.786Z,45.428467
2018-11-02T14:21:09.813Z,45.428467
2018-11-02T14:21:15.816Z,45.227051
2018-11-02T14:21:21.806Z,45.526123
2018-11-02T14:21:27.841Z,45.727539
2018-11-02T14:21:33.764Z,45.928955
2018-11-02T14:21:39.767Z,46.026611
2018-11-02T14:21:45.744Z,45.825195
2018-11-02T14:21:51.767Z,45.727539
2018-11-02T14:21:57.776Z,45.526123
2018-11-02T14:22:03.786Z,45.428467
2018-11-02T14:22:09.705Z,45.330811
2018-11-02T14:22:15.662Z,45.227051
2018-11-02T14:22:21.667Z,45.031738
2018-11-02T14:22:27.618Z,45.129395
2018-11-02T14:22:33.845Z,45.330811
2018-11-02T14:22:39.772Z,45.526123
2018-11-02T14:22:45.753Z,45.629883
2018-11-02T14:22:51.747Z,45.428467
2018-11-02T14:22:57.736Z,45.129395
2018-11-02T14:23:04.776Z,44.927979
2018-11-02T14:23:10.758Z,44.927979
2018-11-02T14:23:16.764Z,44.927979
2018-11-02T14:23:22.745Z,44.830322
2018-11-02T14:23:28.715Z,44.830322
2018-11-02T14:23:34.715Z,44.830322
2018-11-02T14:23:40.631Z,44.732666
2018-11-02T14:23:46.584Z,44.830322
2018-11-02T14:23:52.588Z,44.732666
2018-11-02T14:23:58.607Z,44.830322
2018-11-02T14:24:04.616Z,44.927979
2018-11-02T14:24:10.586Z,45.031738
2018-11-02T14:24:16.583Z,45.227051
2018-11-02T14:24:22.546Z,45.129395
2018-11-02T14:24:28.494Z,45.031738
2018-11-02T14:24:34.470Z,45.031738
2018-11-02T14:24:41.435Z,45.031738
2018-11-02T14:24:47.407Z,45.031738
2018-11-02T14:27:48.102Z,40.631104
2018-11-02T14:27:54.673Z,41.271973
2018-11-02T14:28:01.209Z,42.694092
2018-11-02T14:28:08.773Z,42.755127
2018-11-02T14:28:15.243Z,42.919922
2018-11-02T14:28:21.732Z,44.671631
2018-11-02T14:28:28.203Z,48.413086
2018-11-02T14:28:34.663Z,48.66333
2018-11-02T14:28:41.134Z,50.097656
2018-11-02T14:28:47.823Z,53.625488
2018-11-02T14:28:54.364Z,55.462646
2018-11-02T14:29:01.064Z,56.774902
2018-11-02T14:29:07.664Z,55.438232
2018-11-02T14:29:14.272Z,56.549072
2018-11-02T14:29:20.998Z,59.143066
2018-11-02T14:29:27.920Z,57.025146
2018-11-02T14:29:34.532Z,56.396484
2018-11-02T14:29:41.370Z,56.164551
2018-11-02T14:29:47.855Z,56.671143
2018-11-02T14:29:54.367Z,57.043457
2018-11-02T14:30:00.923Z,54.528809
2018-11-02T14:30:07.402Z,54.327393
2018-11-02T14:30:14.047Z,54.730225
2018-11-02T14:30:20.882Z,55.334473
2018-11-02T14:30:27.532Z,50.732422
2018-11-02T14:30:34.214Z,48.864746
2018-11-02T14:30:40.967Z,49.291992
2018-11-02T14:30:47.634Z,49.841309
2018-11-02T14:30:54.394Z,50.366211
2018-11-02T14:31:01.033Z,51.428223
2018-11-02T14:31:07.733Z,52.056885
2018-11-02T14:31:14.413Z,52.209473
2018-11-02T14:31:21.064Z,53.167725
2018-11-02T14:31:27.643Z,54.614258
2018-11-02T14:31:35.294Z,55.883789
2018-11-02T14:31:41.973Z,57.025146
2018-11-02T14:31:48.623Z,58.36792
2018-11-02T14:31:55.243Z,58.935547
2018-11-02T14:32:02.033Z,59.674072
2018-11-02T14:32:08.749Z,59.979248
2018-11-02T14:32:15.334Z,60.717773
2018-11-02T14:32:21.983Z,61.456299
2018-11-02T14:32:28.586Z,62.17041
2018-11-02T14:32:35.183Z,62.811279
2018-11-02T14:32:41.955Z,63.244629
2018-11-02T14:32:48.765Z,63.757324
2018-11-02T14:32:55.453Z,64.294434
2018-11-02T14:33:02.125Z,65.216064
2018-11-02T14:33:08.816Z,65.856934
2018-11-02T14:33:15.466Z,66.668701
2018-11-02T14:33:22.564Z,67.211914
2018-11-02T14:33:28.933Z,67.108154
2018-11-02T14:33:35.798Z,67.346191
2018-11-02T14:33:42.334Z,67.346191
2018-11-02T14:33:48.764Z,67.547607
2018-11-02T14:33:55.424Z,68.164062
2018-11-02T14:34:02.133Z,68.603516
2018-11-02T14:34:08.855Z,69.213867
2018-11-02T14:34:16.184Z,70.068359
2018-11-02T14:34:39.964Z,67.163086
2018-11-02T14:34:47.642Z,65.41748
2018-11-02T14:34:55.137Z,64.007568
2018-11-02T14:35:01.120Z,63.7146
2018-11-02T14:35:07.078Z,62.438965
2018-11-02T14:35:13.090Z,60.333252
2018-11-02T14:35:19.379Z,57.958984
2018-11-02T14:35:26.308Z,56.469727
2018-11-02T14:35:32.169Z,57.244873
